Time;durP1;ratioP1;P1;durP2;ratioP2;P2;SDS_P1;SDS_P2;PMS_P1;PMS_P2;Temp;Humidity;BMP_temperature;BMP_pressure;BME280_temperature;BME280_humidity;BME280_pressure;Samples;Min_cycle;Max_cycle;Signal;HPM_P1;HPM_P2
2023/01/24 00:02:54;;;;;;;59.40;26.40;;;;;;;2.65;88.16;102362.72;131609;1247;109130;-74
2023/01/24 00:06:00;;;;;;;55.60;25.40;;;;;;;2.65;88.12;102359.38;131707;1247;108381;-74
2023/01/24 00:09:05;;;;;;;59.00;25.80;;;;;;;2.67;88.02;102358.61;131698;1252;107557;-79
2023/01/24 00:12:11;;;;;;;57.50;27.10;;;;;;;2.67;88.06;102360.36;131584;1253;105693;-74
2023/01/24 00:15:17;;;;;;;60.10;26.30;;;;;;;2.67;88.14;102357.91;131677;1247;106588;-74
2023/01/24 00:18:22;;;;;;;63.70;26.40;;;;;;;2.64;88.13;102361.71;131741;1247;108022;-75
2023/01/24 00:21:28;;;;;;;56.20;24.70;;;;;;;2.58;88.04;102360.14;131950;1252;107509;-73
2023/01/24 00:24:34;;;;;;;56.00;26.10;;;;;;;2.55;88.40;102361.83;131682;1248;107521;-72
2023/01/24 00:27:40;;;;;;;49.20;22.30;;;;;;;2.58;88.59;102364.36;131838;1248;107387;-72
2023/01/24 00:30:45;;;;;;;50.70;24.10;;;;;;;2.58;88.24;102365.94;131638;1254;107630;-71
2023/01/24 00:33:51;;;;;;;52.00;24.60;;;;;;;2.59;88.34;102363.25;131821;1252;106761;-72
2023/01/24 00:36:56;;;;;;;50.70;24.60;;;;;;;2.66;88.36;102365.14;131731;1252;107629;-73
2023/01/24 00:40:02;;;;;;;54.70;24.80;;;;;;;2.69;88.25;102368.73;131643;1255;107259;-74
2023/01/24 00:43:08;;;;;;;54.00;25.10;;;;;;;2.64;88.07;102365.91;131904;1247;107500;-73
2023/01/24 00:46:13;;;;;;;53.30;24.50;;;;;;;2.56;88.11;102362.13;131574;1248;108653;-73
2023/01/24 00:49:19;;;;;;;50.00;23.70;;;;;;;2.50;88.17;102358.45;131875;1254;107297;-75
2023/01/24 00:52:25;;;;;;;45.60;22.30;;;;;;;2.52;88.44;102356.98;131869;1248;108455;-72
2023/01/24 00:55:31;;;;;;;51.70;24.10;;;;;;;2.56;88.59;102355.98;131660;1249;107468;-73
2023/01/24 00:58:37;;;;;;;50.00;24.00;;;;;;;2.64;88.46;102359.23;131801;1253;107917;-77
2023/01/24 01:01:43;;;;;;;52.40;24.10;;;;;;;2.66;88.38;102356.02;131735;1252;108648;-74
2023/01/24 01:04:49;;;;;;;50.90;23.80;;;;;;;2.65;88.24;102357.09;131476;1250;107464;-74
2023/01/24 01:07:55;;;;;;;58.10;26.20;;;;;;;2.63;87.95;102356.13;131555;1247;107869;-76
2023/01/24 01:11:01;;;;;;;56.20;25.70;;;;;;;2.56;88.19;102358.46;131435;1247;107632;-70
2023/01/24 01:14:08;;;;;;;64.60;26.90;;;;;;;2.50;88.18;102358.28;130720;1253;107479;-70
2023/01/24 01:17:13;;;;;;;58.50;24.30;;;;;;;2.45;88.48;102361.96;130992;1253;108103;-71
2023/01/24 01:20:19;;;;;;;44.80;22.10;;;;;;;2.44;88.59;102363.23;131389;1252;108210;-73
2023/01/24 01:23:25;;;;;;;47.90;21.20;;;;;;;2.48;88.68;102358.53;131546;1260;107592;-72
2023/01/24 01:26:32;;;;;;;51.60;24.70;;;;;;;2.51;88.53;102360.70;131491;1252;107549;-73
2023/01/24 01:29:38;;;;;;;53.40;25.10;;;;;;;2.59;88.57;102363.81;131493;1251;107644;-75
2023/01/24 01:32:44;;;;;;;50.00;23.60;;;;;;;2.62;88.22;102364.39;131508;1248;107847;-72
2023/01/24 01:35:50;;;;;;;51.40;25.00;;;;;;;2.61;88.38;102365.14;131640;1252;107454;-73
2023/01/24 01:38:56;;;;;;;52.90;25.50;;;;;;;2.61;88.34;102366.73;131558;1247;107481;-73
2023/01/24 01:42:01;;;;;;;52.00;25.20;;;;;;;2.56;88.32;102364.08;131361;1253;107557;-76
2023/01/24 01:45:38;;;;;;;61.00;25.90;;;;;;;2.56;88.52;102360.56;131293;1254;107524;-73
2023/01/24 01:48:48;;;;;;;58.10;25.00;;;;;;;2.54;88.49;102361.85;131295;1253;107511;-73
2023/01/24 01:51:57;;;;;;;50.70;21.50;;;;;;;2.51;88.51;102361.41;131321;1258;107529;-73
2023/01/24 01:55:09;;;;;;;60.70;25.50;;;;;;;2.57;88.65;102358.08;131484;1252;107324;-74
2023/01/24 01:58:15;;;;;;;55.10;24.80;;;;;;;2.63;88.63;102355.77;131489;1252;107565;-75
2023/01/24 02:01:21;;;;;;;56.70;25.10;;;;;;;2.61;88.49;102350.89;131347;1248;108562;-75
2023/01/24 02:04:31;;;;;;;59.70;25.00;;;;;;;2.68;88.68;102352.96;131512;1248;105583;-75
2023/01/24 02:07:43;;;;;;;54.40;25.10;;;;;;;2.74;88.40;102346.44;131244;1247;107912;-74
2023/01/24 02:17:42;;;;;;;56.00;25.10;;;;;;;2.62;88.34;102333.30;131273;1252;107580;-74
2023/01/24 02:20:49;;;;;;;52.70;22.30;;;;;;;2.63;88.34;102325.55;131342;1252;107225;-74
2023/01/24 02:24:06;;;;;;;52.20;23.00;;;;;;;2.64;88.36;102325.16;131304;1254;107198;-74
2023/01/24 02:27:11;;;;;;;52.20;23.70;;;;;;;2.63;88.31;102323.95;131327;1248;107528;-73
2023/01/24 02:30:17;;;;;;;56.80;26.00;;;;;;;2.70;88.83;102318.98;131359;1254;107287;-74
2023/01/24 02:33:23;;;;;;;53.80;24.00;;;;;;;2.79;88.59;102318.17;131583;1253;107611;-74
2023/01/24 02:36:33;;;;;;;56.00;25.50;;;;;;;2.83;88.22;102318.20;131407;1248;106489;-74
2023/01/24 02:39:45;;;;;;;58.20;27.00;;;;;;;2.84;88.37;102320.61;131517;1252;107961;-74
2023/01/24 02:42:52;;;;;;;60.80;25.40;;;;;;;2.78;88.12;102321.70;131428;1253;107840;-74
2023/01/24 02:45:58;;;;;;;61.40;25.50;;;;;;;2.71;88.11;102322.64;131616;1247;107616;-74
2023/01/24 02:49:07;;;;;;;53.50;22.30;;;;;;;2.66;88.28;102321.75;131550;1248;107506;-74
2023/01/24 02:58:05;;;;;;;62.10;26.50;;;;;;;2.64;88.38;102326.20;131296;1252;107455;-75
2023/01/24 02:59:05;;;;;;;55.70;25.10;;;;;;;2.68;88.64;102330.30;131379;1252;107506;-74
2023/01/24 03:02:11;;;;;;;58.10;25.00;;;;;;;2.68;88.42;102335.20;131529;1247;107511;-76
2023/01/24 03:05:17;;;;;;;67.10;26.70;;;;;;;2.64;88.39;102334.80;131676;1250;106774;-73
2023/01/24 03:08:26;;;;;;;64.70;26.90;;;;;;;2.58;88.35;102334.48;131526;1264;107394;-73
2023/01/24 03:11:33;;;;;;;66.00;26.30;;;;;;;2.54;88.56;102333.38;131432;1253;107886;-73
2023/01/24 03:34:59;;;;;;;63.80;26.40;;;;;;;2.69;88.56;102344.30;131366;1250;107494;-72
2023/01/24 03:41:40;;;;;;;64.70;26.90;;;;;;;2.60;88.42;102341.44;130956;1255;229818;-73
2023/01/24 03:44:45;;;;;;;71.00;28.00;;;;;;;2.60;88.53;102341.10;131367;1249;106574;-72
2023/01/24 03:48:04;;;;;;;80.50;29.60;;;;;;;2.54;88.39;102344.96;131503;1254;107553;-74
2023/01/24 03:54:34;;;;;;;74.20;28.70;;;;;;;2.50;88.76;102349.16;131323;1250;107600;-72
2023/01/24 03:57:42;;;;;;;57.70;25.30;;;;;;;2.56;88.73;102345.10;131369;1250;107625;-75
2023/01/24 04:00:48;;;;;;;67.50;27.90;;;;;;;2.65;88.91;102342.67;131306;1254;106367;-73
2023/01/24 04:04:23;;;;;;;65.40;27.30;;;;;;;2.68;88.35;102343.98;131512;1249;107484;-73
2023/01/24 04:07:29;;;;;;;70.20;28.20;;;;;;;2.59;88.31;102345.16;131577;1250;107571;-73
2023/01/24 04:10:38;;;;;;;66.80;26.90;;;;;;;2.53;88.58;102354.50;131425;1254;107518;-74
2023/01/24 04:13:44;;;;;;;67.10;26.50;;;;;;;2.54;88.76;102356.91;131429;1254;107393;-73
2023/01/24 04:16:50;;;;;;;60.60;24.50;;;;;;;2.54;88.71;102361.14;131585;1249;106539;-73
2023/01/24 04:19:59;;;;;;;65.40;28.00;;;;;;;2.60;89.05;102363.05;131718;1254;107393;-74
2023/01/24 04:23:06;;;;;;;69.00;28.30;;;;;;;2.67;88.84;102365.27;131593;1250;106575;-74
2023/01/24 04:26:13;;;;;;;73.70;28.80;;;;;;;2.69;88.56;102366.46;131571;1251;106650;-74
2023/01/24 04:29:20;;;;;;;66.70;28.40;;;;;;;2.64;88.53;102364.68;131584;1249;107516;-72
2023/01/24 04:32:29;;;;;;;70.60;28.70;;;;;;;2.65;88.77;102362.53;131671;1250;107348;-73
2023/01/24 04:35:38;;;;;;;72.10;26.60;;;;;;;2.64;88.35;102362.59;131586;1252;107598;-73
2023/01/24 04:38:44;;;;;;;70.70;27.70;;;;;;;2.59;88.56;102363.98;131649;1252;107520;-73
2023/01/24 04:42:15;;;;;;;60.50;23.90;;;;;;;2.62;88.81;102367.03;131607;1252;107591;-72
2023/01/24 04:45:22;;;;;;;70.70;27.60;;;;;;;2.69;88.68;102370.15;131419;1250;107344;-71
2023/01/24 04:48:27;;;;;;;62.80;27.10;;;;;;;2.75;88.73;102364.16;131590;1254;109299;-71
2023/01/24 04:51:33;;;;;;;67.20;26.40;;;;;;;2.78;88.51;102364.06;131447;1253;107498;-72
2023/01/24 04:54:40;;;;;;;66.00;27.00;;;;;;;2.81;88.57;102363.96;131667;1249;107870;-71
2023/01/24 04:57:46;;;;;;;68.00;28.10;;;;;;;2.83;88.43;102367.57;131679;1256;107262;-72
2023/01/24 05:00:53;;;;;;;70.80;28.90;;;;;;;2.78;88.27;102368.27;131685;1250;107454;-71
2023/01/24 05:03:59;;;;;;;71.00;27.50;;;;;;;2.70;88.35;102371.33;131680;1251;107394;-73
2023/01/24 05:07:05;;;;;;;65.80;27.50;;;;;;;2.65;88.47;102372.02;131645;1249;107298;-72
2023/01/24 05:10:13;;;;;;;59.60;25.10;;;;;;;2.68;88.70;102372.80;131577;1250;107420;-72
2023/01/24 05:13:19;;;;;;;68.60;27.30;;;;;;;2.69;88.43;102375.97;131624;1260;107540;-73
2023/01/24 05:16:25;;;;;;;62.00;27.00;;;;;;;2.70;88.59;102378.56;131588;1252;107562;-73
2023/01/24 05:19:31;;;;;;;74.70;30.30;;;;;;;2.71;88.32;102380.82;131434;1250;107466;-74
2023/01/24 05:22:38;;;;;;;64.90;27.10;;;;;;;2.64;88.48;102381.04;131570;1250;107938;-72
2023/01/24 05:25:43;;;;;;;62.40;27.90;;;;;;;2.63;88.71;102385.82;131431;1254;107227;-72
2023/01/24 05:28:53;;;;;;;70.90;27.60;;;;;;;2.63;88.71;102387.02;131496;1252;106869;-75
2023/01/24 05:31:59;;;;;;;75.80;28.60;;;;;;;2.57;88.61;102388.80;131506;1256;107574;-74
2023/01/24 05:35:07;;;;;;;61.90;24.90;;;;;;;2.58;88.74;102389.15;131538;1247;107514;-73
2023/01/24 05:38:12;;;;;;;61.90;26.40;;;;;;;2.62;88.86;102386.01;131571;1250;107528;-71
2023/01/24 05:41:20;;;;;;;61.90;27.00;;;;;;;2.71;88.85;102379.92;131545;1253;108082;-73
2023/01/24 05:44:28;;;;;;;67.80;27.70;;;;;;;2.74;88.87;102382.30;131516;1248;107974;-73
2023/01/24 05:47:34;;;;;;;72.60;27.90;;;;;;;2.82;88.71;102382.89;131497;1253;107245;-73
2023/01/24 05:50:39;;;;;;;72.70;29.10;;;;;;;2.82;88.43;102385.20;131592;1252;106736;-71
2023/01/24 05:53:49;;;;;;;71.60;30.30;;;;;;;2.71;88.32;102388.02;131604;1248;106451;-73
2023/01/24 05:57:05;;;;;;;79.70;29.10;;;;;;;2.63;88.37;102387.73;131451;1253;107485;-73
2023/01/24 06:00:27;;;;;;;76.60;28.70;;;;;;;2.59;88.75;102392.63;131472;1252;106799;-73
2023/01/24 06:03:53;;;;;;;75.40;27.80;;;;;;;2.60;88.69;102392.39;131594;1252;107442;-73
2023/01/24 06:06:59;;;;;;;86.00;30.70;;;;;;;2.64;88.74;102394.73;131437;1248;107248;-73
2023/01/24 06:10:05;;;;;;;76.50;29.40;;;;;;;2.68;88.70;102398.66;131469;1247;107496;-73
2023/01/24 06:13:20;;;;;;;79.70;29.60;;;;;;;2.72;88.72;102402.56;131587;1250;107433;-73
2023/01/24 06:16:27;;;;;;;67.00;28.60;;;;;;;2.78;88.67;102402.39;131469;1252;107488;-73
2023/01/24 06:19:34;;;;;;;70.30;28.90;;;;;;;2.79;88.50;102403.07;131709;1247;108667;-73
2023/01/24 06:22:47;;;;;;;65.00;27.30;;;;;;;2.73;88.54;102405.00;131826;1256;108650;-72
2023/01/24 06:25:54;;;;;;;73.60;28.70;;;;;;;2.71;88.70;102405.04;131444;1249;106494;-75
2023/01/24 06:29:01;;;;;;;61.80;25.00;;;;;;;2.72;88.69;102412.22;131481;1252;107392;-73
2023/01/24 06:32:21;;;;;;;63.00;26.80;;;;;;;2.74;88.75;102412.68;131576;1264;107542;-71
2023/01/24 06:35:32;;;;;;;72.30;27.90;;;;;;;2.75;88.47;102409.33;131721;1250;107487;-71
2023/01/24 06:38:40;;;;;;;67.60;26.80;;;;;;;2.78;88.72;102411.70;131436;1247;107497;-71
2023/01/24 06:41:47;;;;;;;68.10;27.80;;;;;;;2.84;88.89;102414.65;131552;1252;108039;-76
2023/01/24 06:44:52;;;;;;;70.30;28.90;;;;;;;2.89;88.61;102421.01;131828;1249;105844;-71
2023/01/24 06:47:58;;;;;;;74.00;30.20;;;;;;;2.88;88.56;102421.02;131930;1247;107531;-71
2023/01/24 06:51:04;;;;;;;71.00;27.70;;;;;;;2.86;88.47;102422.69;131800;1252;108591;-71
2023/01/24 06:54:09;;;;;;;71.60;28.00;;;;;;;2.83;88.36;102423.11;131806;1252;107387;-74
2023/01/24 06:57:15;;;;;;;60.60;25.90;;;;;;;2.83;88.59;102430.00;131624;1250;107883;-71
2023/01/24 07:00:22;;;;;;;75.90;28.40;;;;;;;2.85;88.52;102432.02;131749;1253;107527;-75
2023/01/24 07:03:27;;;;;;;72.80;30.50;;;;;;;2.85;88.49;102435.02;131706;1252;107281;-74
2023/01/24 07:06:33;;;;;;;73.10;29.40;;;;;;;2.89;88.60;102432.25;131874;1249;107519;-76
2023/01/24 07:09:38;;;;;;;70.80;29.10;;;;;;;2.91;88.59;102430.77;131797;1249;106044;-73
2023/01/24 07:12:45;;;;;;;74.00;29.20;;;;;;;2.90;88.41;102435.56;131708;1251;107512;-73
2023/01/24 07:15:50;;;;;;;75.20;29.90;;;;;;;2.81;88.60;102434.98;131738;1254;107533;-74
2023/01/24 07:18:57;;;;;;;67.60;28.00;;;;;;;2.73;88.60;102430.14;131745;1249;107991;-77
2023/01/24 07:22:04;;;;;;;76.80;30.00;;;;;;;2.74;88.78;102426.23;131874;1250;108204;-73
2023/01/24 07:25:15;;;;;;;74.10;30.50;;;;;;;2.73;88.58;102426.61;131887;1254;108223;-75
2023/01/24 07:28:22;;;;;;;73.20;29.50;;;;;;;2.73;88.84;102424.48;132291;1252;107659;-75
2023/01/24 07:31:27;;;;;;;69.10;29.00;;;;;;;2.77;88.93;102421.73;131752;1252;108239;-72
2023/01/24 07:34:33;;;;;;;77.10;29.80;;;;;;;2.84;88.80;102426.43;131833;1249;108111;-74
2023/01/24 07:37:39;;;;;;;74.40;30.60;;;;;;;2.82;88.65;102429.13;132072;1252;107473;-73
2023/01/24 07:40:44;;;;;;;72.30;29.30;;;;;;;2.75;88.72;102426.72;131949;1250;107617;-74
2023/01/24 07:43:50;;;;;;;72.60;29.50;;;;;;;2.77;89.04;102427.02;132104;1250;107677;-82
2023/01/24 07:46:56;;;;;;;81.70;30.20;;;;;;;2.89;89.14;102425.75;131931;1250;107585;-73
2023/01/24 07:50:02;;;;;;;75.30;29.50;;;;;;;3.03;88.84;102423.89;132160;1252;107637;-70
2023/01/24 07:53:08;;;;;;;73.50;32.20;;;;;;;3.11;88.66;102417.61;131954;1254;107089;-74
2023/01/24 07:56:15;;;;;;;78.80;33.10;;;;;;;3.17;88.52;102425.70;131466;1249;107549;-73
2023/01/24 07:59:20;;;;;;;82.70;32.90;;;;;;;3.20;88.51;102428.91;131684;1249;107392;-75
2023/01/24 08:02:26;;;;;;;77.80;31.50;;;;;;;3.22;88.46;102431.68;132086;1248;107899;-81
2023/01/24 08:05:32;;;;;;;70.60;30.50;;;;;;;3.21;88.32;102429.06;132037;1249;108597;-73
2023/01/24 08:08:37;;;;;;;71.70;30.30;;;;;;;3.26;88.69;102432.78;131813;1249;107889;-76
2023/01/24 08:11:44;;;;;;;76.40;30.30;;;;;;;3.28;88.41;102434.30;131825;1250;105537;-75
2023/01/24 08:14:50;;;;;;;68.40;29.00;;;;;;;3.30;88.72;102436.33;131939;1249;107257;-73
2023/01/24 08:17:56;;;;;;;64.90;28.10;;;;;;;3.32;88.29;102445.05;133681;1247;107494;-77
2023/01/24 08:21:03;;;;;;;65.90;28.20;;;;;;;3.28;88.33;102446.25;131849;1252;107859;-78
2023/01/24 08:24:10;;;;;;;65.80;28.80;;;;;;;3.33;88.41;102447.67;131742;1254;108776;-77
2023/01/24 08:27:15;;;;;;;63.50;27.60;;;;;;;3.44;88.91;102448.02;131713;1252;107611;-77
2023/01/24 08:30:21;;;;;;;63.80;28.10;;;;;;;3.57;88.54;102441.73;131915;1250;107670;-79
2023/01/24 08:33:27;;;;;;;64.10;29.20;;;;;;;3.65;88.22;102439.88;131927;1252;107556;-79
2023/01/24 08:36:32;;;;;;;69.40;30.80;;;;;;;3.63;88.20;102440.83;131982;1259;107495;-75
2023/01/24 08:39:39;;;;;;;73.40;30.60;;;;;;;3.66;87.92;102441.45;131766;1252;110223;-78
2023/01/24 08:42:44;;;;;;;62.10;27.00;;;;;;;3.57;87.74;102440.34;131730;1252;106850;-77
2023/01/24 08:45:54;;;;;;;62.20;28.20;;;;;;;3.61;88.27;102445.48;131841;1252;106689;-76
2023/01/24 08:49:00;;;;;;;65.10;27.60;;;;;;;3.67;88.30;102448.08;131769;1250;107607;-76
2023/01/24 08:52:06;;;;;;;75.40;32.10;;;;;;;3.80;88.15;102452.70;131698;1252;107503;-76
2023/01/24 08:55:12;;;;;;;77.50;34.00;;;;;;;3.81;87.53;102454.29;132128;1250;107892;-78
2023/01/24 08:58:18;;;;;;;79.50;35.40;;;;;;;3.79;87.70;102459.44;131988;1250;107346;-74
2023/01/24 09:01:25;;;;;;;88.40;40.10;;;;;;;3.78;87.68;102457.91;131483;1249;107542;-75
2023/01/24 09:04:31;;;;;;;74.60;34.40;;;;;;;3.77;87.66;102457.05;131671;1249;107282;-74
2023/01/24 09:07:37;;;;;;;74.30;34.40;;;;;;;3.74;87.97;102452.58;131995;1252;107376;-74
2023/01/24 09:10:42;;;;;;;73.60;31.40;;;;;;;3.79;88.00;102450.81;131871;1249;107350;-72
2023/01/24 09:13:48;;;;;;;72.40;32.60;;;;;;;3.85;87.65;102453.77;131843;1256;107939;-75
2023/01/24 09:16:53;;;;;;;71.80;30.50;;;;;;;3.87;87.69;102455.98;131797;1250;107367;-74
2023/01/24 09:19:59;;;;;;;76.60;33.10;;;;;;;3.89;87.56;102453.09;131810;1249;106063;-72
2023/01/24 09:23:13;;;;;;;70.60;32.40;;;;;;;3.92;87.48;102448.76;131680;1255;109409;-73
2023/01/24 09:26:19;;;;;;;63.10;29.70;;;;;;;3.91;87.56;102452.68;131848;1249;106538;-72
2023/01/24 09:29:24;;;;;;;67.30;30.40;;;;;;;3.91;87.30;102453.20;131743;1250;107440;-75
2023/01/24 09:32:30;;;;;;;62.90;29.40;;;;;;;3.79;87.21;102448.85;131670;1249;108677;-75
2023/01/24 09:35:35;;;;;;;63.00;28.40;;;;;;;3.67;87.28;102445.06;131727;1253;107640;-74
2023/01/24 09:38:42;;;;;;;59.70;25.80;;;;;;;3.60;87.68;102443.73;131789;1249;107573;-73
2023/01/24 09:41:56;;;;;;;63.10;26.50;;;;;;;3.63;87.93;102443.80;131997;1249;107522;-74
2023/01/24 09:45:13;;;;;;;60.30;26.40;;;;;;;3.65;87.75;102445.50;131693;1250;107362;-74
2023/01/24 09:48:20;;;;;;;62.30;28.70;;;;;;;3.70;87.88;102449.74;131883;1255;107460;-74
2023/01/24 09:51:30;;;;;;;62.30;28.00;;;;;;;3.66;87.46;102446.86;131825;1253;107465;-71
2023/01/24 09:54:44;;;;;;;63.00;28.60;;;;;;;3.68;87.59;102447.88;131684;1262;108176;-76
2023/01/24 09:57:56;;;;;;;61.30;28.90;;;;;;;3.75;88.14;102447.98;131735;1252;108657;-75
2023/01/24 10:01:09;;;;;;;71.50;31.60;;;;;;;3.79;87.26;102449.05;131731;1252;108649;-76
2023/01/24 10:04:22;;;;;;;63.40;27.50;;;;;;;3.72;87.40;102449.82;131916;1250;107540;-76
2023/01/24 10:07:33;;;;;;;;;;;;;;;3.71;87.51;102452.85;131947;1252;107519;-76
2023/01/24 10:10:47;;;;;;;54.60;26.40;;;;;;;3.70;87.54;102453.61;131794;1252;107430;-75
2023/01/24 10:14:10;;;;;;;62.60;28.00;;;;;;;3.67;87.42;102454.06;131794;1250;107496;-75
2023/01/24 10:17:29;;;;;;;64.80;29.50;;;;;;;3.69;87.64;102454.15;131728;1255;107524;-74
2023/01/24 10:21:11;;;;;;;62.70;29.70;;;;;;;3.66;87.34;102455.86;131609;1250;107498;-73
2023/01/24 10:24:21;;;;;;;64.10;29.20;;;;;;;3.63;87.68;102453.66;131597;1250;107410;-75
2023/01/24 10:27:32;;;;;;;62.80;29.80;;;;;;;3.68;87.82;102450.86;131515;1257;107518;-73
2023/01/24 10:30:45;;;;;;;63.20;30.60;;;;;;;3.69;87.80;102454.50;131683;1250;107588;-75
2023/01/24 10:33:54;;;;;;;59.70;27.30;;;;;;;3.67;87.68;102453.02;131608;1250;107492;-75
2023/01/24 10:37:03;;;;;;;59.40;27.60;;;;;;;3.65;87.63;102449.77;132070;1252;107531;-75
2023/01/24 10:40:16;;;;;;;66.00;30.00;;;;;;;3.64;87.87;102449.26;131741;1252;105766;-75
2023/01/24 10:43:23;;;;;;;64.10;30.70;;;;;;;3.60;87.54;102451.14;131661;1252;108447;-77
2023/01/24 10:46:50;;;;;;;66.80;32.90;;;;;;;3.64;88.05;102446.77;131765;1252;107936;-75
2023/01/24 10:50:01;;;;;;;67.20;32.20;;;;;;;3.70;87.94;102446.02;131633;1249;107514;-76
2023/01/24 10:53:22;;;;;;;75.20;33.60;;;;;;;3.71;87.83;102448.11;131644;1249;107813;-81
2023/01/24 10:56:28;;;;;;;65.10;30.80;;;;;;;3.66;87.64;102443.52;131586;1252;107554;-81
2023/01/24 10:59:35;;;;;;;67.80;30.00;;;;;;;3.66;87.93;102442.46;131579;1253;107454;-75
2023/01/24 11:02:40;;;;;;;68.20;31.40;;;;;;;3.67;87.71;102438.05;131620;1250;108426;-76
2023/01/24 11:05:49;;;;;;;62.00;29.60;;;;;;;3.67;87.69;102436.98;131824;1255;107536;-76
2023/01/24 11:09:04;;;;;;;64.70;30.30;;;;;;;3.68;87.63;102436.06;131802;1248;107542;-78
2023/01/24 11:12:15;;;;;;;60.20;29.10;;;;;;;3.66;87.41;102434.73;131592;1253;106753;-80
2023/01/24 11:15:26;;;;;;;64.50;29.10;;;;;;;3.63;87.68;102432.02;131589;1250;105533;-77
2023/01/24 11:18:34;;;;;;;59.40;27.80;;;;;;;3.60;87.72;102429.66;131512;1252;109318;-77
2023/01/24 11:21:52;;;;;;;59.00;27.90;;;;;;;3.62;87.75;102430.46;131665;1255;108574;-76
2023/01/24 11:25:02;;;;;;;61.30;28.00;;;;;;;3.66;87.80;102431.56;132020;1252;106545;-77
2023/01/24 11:28:25;;;;;;;61.20;30.20;;;;;;;3.69;87.71;102429.36;132521;1250;108838;-75
2023/01/24 11:31:37;;;;;;;63.50;30.60;;;;;;;3.74;87.74;102426.55;131540;1251;107883;-78
2023/01/24 11:34:51;;;;;;;64.20;30.60;;;;;;;3.80;87.82;102423.84;133107;1250;107502;-77
2023/01/24 11:38:22;;;;;;;69.60;31.60;;;;;;;3.90;87.56;102421.54;131680;1255;107523;-77
2023/01/24 11:41:35;;;;;;;72.00;33.70;;;;;;;3.93;87.38;102415.63;131653;1255;107522;-80
2023/01/24 11:44:59;;;;;;;68.30;31.80;;;;;;;3.87;87.20;102420.94;131913;1252;107447;-76
2023/01/24 11:48:16;;;;;;;67.50;31.70;;;;;;;3.77;87.32;102418.13;131852;1249;107253;-75
2023/01/24 11:51:35;;;;;;;69.20;32.20;;;;;;;3.69;87.44;102416.48;131873;1250;107244;-74
2023/01/24 11:54:51;;;;;;;73.60;32.40;;;;;;;3.70;87.62;102414.53;131941;1250;107523;-74
2023/01/24 11:58:09;;;;;;;72.30;33.20;;;;;;;3.72;87.59;102409.16;131829;1250;108585;-78
2023/01/24 12:01:22;;;;;;;73.60;33.50;;;;;;;3.85;87.84;102412.41;131850;1252;107010;-79
2023/01/24 12:04:52;;;;;;;72.50;34.30;;;;;;;3.98;87.56;102410.65;131855;1253;106124;-80
2023/01/24 12:08:12;;;;;;;75.60;32.50;;;;;;;4.05;87.34;102405.33;131754;1248;107479;-76
2023/01/24 12:11:23;;;;;;;70.00;33.10;;;;;;;4.09;87.20;102403.04;131623;1252;107525;-76
2023/01/24 12:14:58;;;;;;;61.50;28.50;;;;;;;4.03;87.07;102407.16;131638;1251;107516;-77
2023/01/24 12:18:24;;;;;;;57.30;27.10;;;;;;;3.93;86.86;102402.77;131896;1250;107368;-75
2023/01/24 12:21:29;;;;;;;59.20;27.20;;;;;;;3.98;87.22;102401.36;131829;1254;108176;-76
2023/01/24 12:24:40;;;;;;;54.60;28.30;;;;;;;4.05;87.05;102395.08;131887;1249;107881;-76
2023/01/24 12:27:47;;;;;;;63.80;31.00;;;;;;;4.07;87.15;102392.72;132091;1254;107476;-75
2023/01/24 12:30:58;;;;;;;59.20;29.80;;;;;;;4.11;87.05;102392.39;132167;1252;107425;-77
2023/01/24 12:34:13;;;;;;;57.30;29.30;;;;;;;4.17;87.05;102388.98;131880;1252;107447;-75
2023/01/24 12:37:30;;;;;;;60.20;30.60;;;;;;;4.22;86.97;102385.83;131780;1259;106757;-76
2023/01/24 12:40:47;;;;;;;53.10;26.90;;;;;;;4.24;86.74;102386.79;131830;1252;107530;-80
2023/01/24 12:43:59;;;;;;;53.10;25.10;;;;;;;4.13;86.52;102389.34;131953;1249;107540;-77
2023/01/24 12:47:18;;;;;;;50.00;25.40;;;;;;;4.11;86.79;102384.47;131994;1250;109004;-80
2023/01/24 12:50:31;;;;;;;50.50;25.20;;;;;;;4.10;86.77;102380.13;131866;1252;107892;-77
2023/01/24 12:53:53;;;;;;;49.70;25.30;;;;;;;4.16;87.00;102380.78;131806;1254;107522;-76
2023/01/24 12:57:06;;;;;;;61.40;27.60;;;;;;;4.26;87.05;102378.60;131793;1255;108156;-76
2023/01/24 13:00:18;;;;;;;67.40;29.50;;;;;;;4.33;86.85;102372.15;132025;1262;107455;-76
2023/01/24 13:03:39;;;;;;;61.60;28.40;;;;;;;4.39;86.80;102365.77;132020;1250;109137;-76
2023/01/24 13:06:55;;;;;;;57.10;27.50;;;;;;;4.44;86.67;102364.50;132104;1250;108657;-79
2023/01/24 13:10:11;;;;;;;50.00;25.60;;;;;;;4.40;86.42;102364.31;131938;1254;107433;-76
2023/01/24 13:13:22;;;;;;;50.40;24.90;;;;;;;4.40;86.65;102369.63;132114;1250;106305;-74
2023/01/24 13:16:46;;;;;;;53.30;26.20;;;;;;;4.39;86.51;102374.94;131998;1252;107850;-79
2023/01/24 13:20:03;;;;;;;53.90;26.50;;;;;;;4.36;86.37;102373.83;131952;1252;108213;-79
2023/01/24 13:23:23;;;;;;;52.60;26.10;;;;;;;4.30;86.18;102367.17;132087;1254;107529;-76
2023/01/24 13:26:49;;;;;;;52.60;26.50;;;;;;;4.29;86.58;102362.97;131922;1251;107411;-77
2023/01/24 13:30:12;;;;;;;55.70;27.10;;;;;;;4.36;86.82;102362.02;131936;1255;106868;-77
2023/01/24 13:33:21;;;;;;;51.60;27.10;;;;;;;4.45;86.38;102368.89;131590;1255;107726;-77
2023/01/24 13:36:31;;;;;;;82.50;45.90;;;;;;;4.42;85.90;102369.02;131615;1255;107468;-76
2023/01/24 13:39:39;;;;;;;109.30;65.30;;;;;;;4.31;86.11;102365.02;131760;1251;107524;-76
2023/01/24 13:42:45;;;;;;;54.30;27.70;;;;;;;4.27;86.50;102368.52;131676;1254;107583;-75
2023/01/24 13:45:52;;;;;;;49.70;25.30;;;;;;;4.29;86.66;102369.48;131857;1251;107305;-76
2023/01/24 13:48:59;;;;;;;91.80;55.90;;;;;;;4.31;86.71;102366.27;131731;1255;110035;-75
2023/01/24 13:52:27;;;;;;;66.90;39.10;;;;;;;4.29;86.19;102368.98;131731;1254;107444;-76
2023/01/24 13:56:02;;;;;;;51.70;26.20;;;;;;;4.27;86.43;102373.45;131543;1250;107443;-78
2023/01/24 13:59:14;;;;;;;53.60;28.60;;;;;;;4.23;86.22;102381.71;131686;1255;107244;-76
2023/01/24 14:02:31;;;;;;;50.90;26.80;;;;;;;4.20;86.38;102381.13;131776;1255;107848;-79
2023/01/24 14:05:44;;;;;;;117.50;69.70;;;;;;;4.18;86.37;102385.11;131686;1255;107373;-76
2023/01/24 14:09:18;;;;;;;75.40;39.40;;;;;;;4.07;86.26;102388.66;131633;1259;107512;-77
2023/01/24 14:12:23;;;;;;;47.20;24.10;;;;;;;3.98;86.47;102384.80;131538;1257;107697;-77
2023/01/24 14:15:37;;;;;;;63.50;38.70;;;;;;;3.96;86.51;102377.48;131444;1251;107539;-78
2023/01/24 14:18:50;;;;;;;56.50;31.80;;;;;;;3.95;86.34;102366.77;131817;1255;107572;-77
2023/01/24 14:22:00;;;;;;;51.90;27.50;;;;;;;3.90;86.22;102364.13;131403;1254;107536;-77
2023/01/24 14:25:25;;;;;;;53.20;28.50;;;;;;;3.87;86.36;102367.42;131509;1252;106553;-79
2023/01/24 14:28:39;;;;;;;54.60;27.60;;;;;;;3.84;86.56;102365.60;131833;1254;107508;-77
2023/01/24 14:31:50;;;;;;;56.70;28.30;;;;;;;3.87;86.71;102360.56;131965;1253;108146;-79
2023/01/24 14:35:08;;;;;;;55.50;26.50;;;;;;;3.86;86.62;102363.58;131921;1254;108131;-77
2023/01/24 14:38:17;;;;;;;58.20;26.10;;;;;;;3.91;86.66;102361.14;132219;1253;107375;-78
2023/01/24 14:41:24;;;;;;;64.60;25.40;;;;;;;3.97;86.72;102356.52;132080;1254;107892;-78
2023/01/24 14:44:32;;;;;;;61.90;26.70;;;;;;;4.04;86.67;102349.70;131886;1253;107449;-78
2023/01/24 14:47:38;;;;;;;56.30;25.70;;;;;;;4.08;86.55;102351.64;131957;1257;107572;-76
2023/01/24 14:50:56;;;;;;;45.00;24.20;;;;;;;4.10;86.60;102350.52;131878;1254;107836;-76
2023/01/24 14:54:01;;;;;;;55.20;27.00;;;;;;;4.07;86.35;102349.95;132252;1254;106248;-76